createdAt,value
2016-10-28T00:03:21.840Z,1030.91
2016-10-28T00:08:21.789Z,1030.75
2016-10-28T00:13:21.742Z,1030.82
2016-10-28T00:18:21.684Z,1030.98
2016-10-28T00:23:21.633Z,1031.05
2016-10-28T00:28:21.577Z,1031.18
2016-10-28T00:33:21.524Z,1031.15
2016-10-28T00:38:21.473Z,1031.23
2016-10-28T00:43:21.423Z,1031.24
2016-10-28T00:48:21.371Z,1031.33
2016-10-28T00:53:21.321Z,1031.41
2016-10-28T00:58:21.270Z,1031.49
2016-10-28T01:03:21.218Z,1031.45
2016-10-28T01:08:21.168Z,1031.34
2016-10-28T01:13:21.116Z,1031.26
2016-10-28T01:18:21.064Z,1031.12
2016-10-28T01:23:21.013Z,1031.06
2016-10-28T01:28:20.964Z,1031.07
2016-10-28T01:33:20.912Z,1031.01
2016-10-28T01:38:20.861Z,1030.95
2016-10-28T01:43:20.811Z,1031.07
2016-10-28T01:48:20.758Z,1031.15
2016-10-28T01:53:20.704Z,1030.99
2016-10-28T01:58:20.653Z,1031.03
2016-10-28T02:03:20.599Z,1030.88
2016-10-28T02:08:20.548Z,1030.8
2016-10-28T02:13:20.496Z,1030.81
2016-10-28T02:18:20.442Z,1030.55
2016-10-28T02:23:20.391Z,1030.47
2016-10-28T02:28:20.340Z,1030.4
2016-10-28T02:33:20.289Z,1030.39
2016-10-28T02:38:20.236Z,1030.46
2016-10-28T02:43:20.187Z,1030.7
2016-10-28T02:48:20.134Z,1030.76
2016-10-28T02:53:20.082Z,1030.83
2016-10-28T02:58:20.029Z,1030.8
2016-10-28T03:03:19.978Z,1030.68
2016-10-28T03:08:19.927Z,1030.66
2016-10-28T03:13:19.875Z,1030.66
2016-10-28T03:18:19.824Z,1030.67
2016-10-28T03:23:19.772Z,1030.61
2016-10-28T03:28:19.721Z,1030.49
2016-10-28T03:33:19.669Z,1030.42
2016-10-28T03:38:19.618Z,1030.35
2016-10-28T03:43:19.568Z,1030.3
2016-10-28T03:48:19.517Z,1030.4
2016-10-28T03:53:19.465Z,1030.48
2016-10-28T03:58:19.412Z,1030.48
2016-10-28T04:03:19.360Z,1030.58
2016-10-28T04:08:19.309Z,1030.53
2016-10-28T04:13:19.259Z,1030.39
2016-10-28T04:18:19.203Z,1030.46
2016-10-28T04:23:19.152Z,1030.54
2016-10-28T04:28:19.095Z,1030.54
2016-10-28T04:33:19.046Z,1030.47
2016-10-28T04:38:18.994Z,1030.44
2016-10-28T04:43:18.940Z,1030.44
2016-10-28T04:48:18.888Z,1030.45
2016-10-28T04:53:18.836Z,1030.52
2016-10-28T04:58:18.784Z,1030.4
2016-10-28T05:03:18.730Z,1030.35
2016-10-28T05:08:18.678Z,1030.27
2016-10-28T05:13:18.624Z,1030.41
2016-10-28T05:18:18.570Z,1030.54
2016-10-28T05:23:18.516Z,1030.61
2016-10-28T05:28:18.464Z,1030.57
2016-10-28T05:33:18.410Z,1030.64
2016-10-28T05:38:18.355Z,1030.55
2016-10-28T05:43:18.303Z,1030.72
2016-10-28T05:48:18.249Z,1030.81
2016-10-28T05:53:18.198Z,1030.88
2016-10-28T05:58:18.141Z,1030.79
2016-10-28T06:03:18.089Z,1030.68
2016-10-28T06:08:18.041Z,1030.69
2016-10-28T06:13:17.978Z,1030.71
2016-10-28T06:18:17.926Z,1030.87
2016-10-28T06:23:17.872Z,1030.92
2016-10-28T06:28:17.817Z,1031.04
2016-10-28T06:33:17.763Z,1031.05
2016-10-28T06:38:17.709Z,1031.21
2016-10-28T06:43:17.656Z,1031.28
2016-10-28T06:48:17.603Z,1031.34
2016-10-28T06:53:17.546Z,1031.29
2016-10-28T06:58:17.494Z,1031.28
2016-10-28T07:03:17.439Z,1031.21
2016-10-28T07:08:17.384Z,1031.23
2016-10-28T07:13:17.331Z,1031.16
2016-10-28T07:18:17.276Z,1031.16
2016-10-28T07:23:17.221Z,1031.22
2016-10-28T07:28:17.167Z,1031.42
2016-10-28T07:33:17.113Z,1031.39
2016-10-28T07:38:17.063Z,1031.4
2016-10-28T07:43:17.010Z,1031.36
2016-10-28T07:48:16.953Z,1031.4
2016-10-28T07:53:16.901Z,1031.41
2016-10-28T07:58:16.848Z,1031.46
2016-10-28T08:03:16.798Z,1031.56
2016-10-28T08:08:16.748Z,1031.52
2016-10-28T08:13:16.696Z,1031.63
2016-10-28T08:18:16.644Z,1031.71
2016-10-28T08:23:16.594Z,1031.59
2016-10-28T08:28:16.542Z,1031.57
2016-10-28T08:33:16.492Z,1031.76
2016-10-28T08:38:16.442Z,1031.8
2016-10-28T08:43:16.391Z,1031.88
2016-10-28T08:48:16.340Z,1032.07
2016-10-28T08:53:16.296Z,1031.97
2016-10-28T08:58:16.240Z,1031.95
2016-10-28T09:03:16.191Z,1032.1
2016-10-28T09:08:16.141Z,1032.06
2016-10-28T09:13:16.093Z,1032.14
2016-10-28T09:18:16.042Z,1032.21
2016-10-28T09:23:15.993Z,1032.31
2016-10-28T09:28:15.941Z,1032.42
2016-10-28T09:33:15.891Z,1032.34
2016-10-28T09:38:15.841Z,1032.33
2016-10-28T09:43:15.793Z,1032.41
2016-10-28T09:48:15.743Z,1032.48
2016-10-28T09:53:15.695Z,1032.55
2016-10-28T09:58:15.645Z,1032.54
2016-10-28T10:03:15.599Z,1032.5
2016-10-28T10:08:15.551Z,1032.59
2016-10-28T10:13:15.501Z,1032.57
2016-10-28T10:18:15.453Z,1032.51
2016-10-28T10:23:15.405Z,1032.54
2016-10-28T10:28:15.355Z,1032.54
2016-10-28T10:33:15.305Z,1032.52
2016-10-28T10:38:15.257Z,1032.68
2016-10-28T10:43:15.209Z,1032.72
2016-10-28T10:48:15.157Z,1032.72
2016-10-28T10:53:15.109Z,1032.69
2016-10-28T10:58:15.060Z,1032.56
2016-10-28T11:03:15.014Z,1032.7
2016-10-28T11:08:14.966Z,1032.78
2016-10-28T11:13:14.917Z,1032.93
2016-10-28T11:18:14.872Z,1033.05
2016-10-28T11:23:14.820Z,1033.13
2016-10-28T11:28:14.770Z,1033.07
2016-10-28T11:33:14.721Z,1032.93
2016-10-28T11:38:14.670Z,1032.89
2016-10-28T11:43:14.617Z,1032.73
2016-10-28T11:48:14.574Z,1032.54
2016-10-28T11:53:14.519Z,1032.57
2016-10-28T11:58:14.469Z,1032.76
2016-10-28T12:03:14.431Z,1032.74
2016-10-28T12:08:14.369Z,1032.74
2016-10-28T12:13:14.327Z,1032.85
2016-10-28T12:18:14.271Z,1032.95
2016-10-28T12:23:14.225Z,1032.92
2016-10-28T12:28:14.179Z,1032.99
2016-10-28T12:33:14.131Z,1033.14
2016-10-28T12:38:14.079Z,1033.17
2016-10-28T12:43:14.032Z,1033.28
2016-10-28T12:48:13.982Z,1033.46
2016-10-28T12:53:13.934Z,1033.55
2016-10-28T12:58:13.882Z,1033.52
2016-10-28T13:03:13.832Z,1033.35
2016-10-28T13:08:13.781Z,1033.15
2016-10-28T13:13:13.732Z,1032.86
2016-10-28T13:18:13.681Z,1032.75
2016-10-28T13:23:13.633Z,1033.31
2016-10-28T13:28:13.592Z,1033.48
2016-10-28T13:33:13.542Z,1033.4
2016-10-28T13:38:13.495Z,1033.42
2016-10-28T13:43:13.439Z,1033.49
2016-10-28T13:48:13.387Z,1033.57
2016-10-28T13:53:13.337Z,1033.34
2016-10-28T13:58:13.291Z,1033.31
2016-10-28T14:03:13.241Z,1033.2
2016-10-28T14:08:13.198Z,1033.11
2016-10-28T14:13:13.139Z,1033.18
2016-10-28T14:18:13.092Z,1033.4
2016-10-28T14:23:13.040Z,1033.32
2016-10-28T14:28:12.991Z,1033.44
2016-10-28T14:33:12.946Z,1033.54
2016-10-28T14:38:12.890Z,1033.44
2016-10-28T14:43:12.841Z,1033.51
2016-10-28T14:48:12.788Z,1033.59
2016-10-28T14:53:12.740Z,1033.5
2016-10-28T14:58:12.686Z,1033.43
2016-10-28T15:03:12.641Z,1033.63
2016-10-28T15:08:12.597Z,1033.72
2016-10-28T15:13:12.545Z,1033.77
2016-10-28T15:18:12.498Z,1033.85
2016-10-28T15:23:12.453Z,1033.84
2016-10-28T15:28:12.392Z,1033.84
2016-10-28T15:33:12.335Z,1033.78
2016-10-28T15:38:12.285Z,1033.66
2016-10-28T15:43:12.238Z,1033.64
2016-10-28T15:48:12.187Z,1033.63
2016-10-28T15:53:12.140Z,1033.65
2016-10-28T15:58:12.096Z,1033.78
2016-10-28T16:03:12.048Z,1033.96
2016-10-28T16:08:11.993Z,1033.92
2016-10-28T16:13:11.941Z,1033.96
2016-10-28T16:18:11.893Z,1034.13
2016-10-28T16:23:11.848Z,1034.23
2016-10-28T16:28:11.798Z,1034.2
2016-10-28T16:33:11.747Z,1034.15
2016-10-28T16:38:11.700Z,1034.23
2016-10-28T16:43:11.655Z,1034.23
2016-10-28T16:48:11.610Z,1034.25
2016-10-28T16:53:11.553Z,1034.34
2016-10-28T16:58:11.512Z,1034.42
2016-10-28T17:03:11.464Z,1034.49
2016-10-28T17:08:11.412Z,1034.59
2016-10-28T17:13:11.357Z,1034.63
2016-10-28T17:18:11.320Z,1034.59
2016-10-28T17:23:11.267Z,1034.64
2016-10-28T17:28:11.213Z,1034.8
2016-10-28T17:33:11.161Z,1034.85
2016-10-28T17:38:11.109Z,1034.87
2016-10-28T17:43:11.063Z,1034.85
2016-10-28T17:48:11.015Z,1034.91
2016-10-28T17:53:10.973Z,1034.92
2016-10-28T17:58:10.913Z,1034.95
2016-10-28T18:03:10.866Z,1034.94
2016-10-28T18:08:10.833Z,1035.01
2016-10-28T18:13:10.791Z,1034.97
2016-10-28T18:18:10.746Z,1034.99
2016-10-28T18:23:10.709Z,1035
2016-10-28T18:28:10.692Z,1034.99
2016-10-28T18:33:10.624Z,1035.02
2016-10-28T18:38:10.606Z,1035.09
2016-10-28T18:43:10.572Z,1035.1
2016-10-28T18:48:10.531Z,1035.11
2016-10-28T18:53:10.486Z,1035.18
2016-10-28T18:58:10.442Z,1035.31
2016-10-28T19:03:10.396Z,1035.29
2016-10-28T19:08:10.346Z,1035.28
2016-10-28T19:13:10.301Z,1035.28
2016-10-28T19:18:10.256Z,1035.37
2016-10-28T19:23:10.207Z,1035.46
2016-10-28T19:28:10.169Z,1035.32
2016-10-28T19:33:10.111Z,1035.22
2016-10-28T19:38:10.069Z,1035.4
2016-10-28T19:43:10.060Z,1035.41
2016-10-28T19:48:09.977Z,1035.41
2016-10-28T19:53:09.938Z,1035.51
2016-10-28T19:58:09.923Z,1035.52
2016-10-28T20:03:09.833Z,1035.6
2016-10-28T20:08:09.788Z,1035.51
2016-10-28T20:13:09.804Z,1035.56
2016-10-28T20:18:09.710Z,1035.48
2016-10-28T20:23:09.656Z,1035.56
2016-10-28T20:28:09.626Z,1035.54
2016-10-28T20:33:09.571Z,1035.54
2016-10-28T20:38:09.527Z,1035.6
2016-10-28T20:43:09.483Z,1035.59
2016-10-28T20:48:09.438Z,1035.62
2016-10-28T20:53:09.382Z,1035.63
2016-10-28T20:58:09.344Z,1035.7
2016-10-28T21:03:09.304Z,1035.74
2016-10-28T21:08:09.226Z,1035.75
2016-10-28T21:13:09.126Z,1035.75
2016-10-28T21:18:09.082Z,1035.76
2016-10-28T21:23:09.039Z,1035.67
2016-10-28T21:28:08.993Z,1035.7
2016-10-28T21:33:08.947Z,1035.77
2016-10-28T21:38:08.902Z,1035.86
2016-10-28T21:43:08.854Z,1035.87
2016-10-28T21:48:08.810Z,1035.9
2016-10-28T21:53:08.766Z,1035.87
2016-10-28T21:58:08.717Z,1035.87
2016-10-28T22:03:08.669Z,1035.8
2016-10-28T22:08:08.621Z,1035.83
2016-10-28T22:13:08.580Z,1035.86
2016-10-28T22:18:08.529Z,1035.89
2016-10-28T22:23:08.481Z,1035.82
2016-10-28T22:28:08.435Z,1035.86
2016-10-28T22:33:08.385Z,1035.81
2016-10-28T22:38:08.335Z,1035.79
2016-10-28T22:43:08.285Z,1035.83
2016-10-28T22:48:08.238Z,1035.8
2016-10-28T22:53:08.187Z,1035.84
2016-10-28T22:58:08.142Z,1035.78
2016-10-28T23:03:08.087Z,1035.8
2016-10-28T23:08:08.047Z,1035.84
2016-10-28T23:13:07.991Z,1035.84
2016-10-28T23:18:07.940Z,1035.78
2016-10-28T23:23:07.889Z,1035.83
2016-10-28T23:28:07.841Z,1035.86
2016-10-28T23:33:07.791Z,1035.85
2016-10-28T23:38:07.743Z,1035.87
2016-10-28T23:43:07.691Z,1035.86
2016-10-28T23:48:07.640Z,1035.86
2016-10-28T23:53:07.590Z,1035.85
2016-10-28T23:58:07.540Z,1035.89
